createdAt,value
2022-07-25T00:01:12.812Z,61.69
2022-07-25T00:03:40.940Z,61.72
2022-07-25T00:06:18.422Z,61.71
2022-07-25T00:08:45.171Z,61.69
2022-07-25T00:11:11.848Z,61.80
2022-07-25T00:13:38.498Z,61.81
2022-07-25T00:16:06.040Z,61.79
2022-07-25T00:18:35.626Z,61.84
2022-07-25T00:21:02.294Z,61.88
2022-07-25T00:23:29.292Z,62.22
2022-07-25T00:25:56.209Z,62.13
2022-07-25T00:28:22.855Z,62.42
2022-07-25T00:30:50.133Z,62.26
2022-07-25T00:33:16.938Z,62.32
2022-07-25T00:35:43.763Z,62.28
2022-07-25T00:38:10.367Z,62.49
2022-07-25T00:40:37.229Z,62.60
2022-07-25T00:43:04.245Z,62.48
2022-07-25T00:45:34.132Z,62.62
2022-07-25T00:48:00.793Z,62.39
2022-07-25T00:50:27.443Z,62.45
2022-07-25T00:52:54.466Z,62.64
2022-07-25T00:55:22.148Z,62.81
2022-07-25T00:57:48.827Z,62.53
2022-07-25T01:00:16.727Z,62.56
2022-07-25T01:02:44.226Z,62.42
2022-07-25T01:05:11.729Z,62.57
2022-07-25T01:07:39.294Z,62.54
2022-07-25T01:10:07.566Z,62.60
2022-07-25T01:12:54.972Z,62.83
2022-07-25T01:15:24.313Z,62.67
2022-07-25T01:17:51.431Z,62.57
2022-07-25T01:20:29.447Z,62.70
2022-07-25T01:22:56.547Z,62.49
2022-07-25T01:25:24.005Z,62.56
2022-07-25T01:27:55.697Z,62.42
2022-07-25T01:30:24.228Z,62.40
2022-07-25T01:32:50.885Z,62.35
2022-07-25T01:35:17.664Z,62.38
2022-07-25T01:37:46.159Z,62.34
2022-07-25T01:40:14.105Z,62.33
2022-07-25T01:42:41.845Z,62.43
2022-07-25T01:45:09.128Z,62.53
2022-07-25T01:47:35.822Z,62.67
2022-07-25T01:50:02.491Z,62.79
2022-07-25T01:52:29.136Z,63.00
2022-07-25T01:54:55.826Z,63.03
2022-07-25T01:57:23.271Z,63.14
2022-07-25T01:59:56.839Z,63.22
2022-07-25T02:02:23.476Z,63.27
2022-07-25T02:04:50.143Z,63.06
2022-07-25T02:07:16.867Z,63.03
2022-07-25T02:09:43.486Z,63.24
2022-07-25T02:12:10.160Z,63.35
2022-07-25T02:14:36.995Z,63.38
2022-07-25T02:17:03.884Z,63.39
2022-07-25T02:19:30.594Z,63.26
2022-07-25T02:21:57.210Z,63.24
2022-07-25T02:24:23.837Z,63.23
2022-07-25T02:26:50.462Z,63.19
2022-07-25T02:29:17.118Z,63.02
2022-07-25T02:31:48.628Z,62.97
2022-07-25T02:34:15.256Z,63.06
2022-07-25T02:36:41.873Z,62.72
2022-07-25T02:39:08.573Z,62.98
2022-07-25T02:41:35.263Z,63.12
2022-07-25T02:44:01.861Z,63.08
2022-07-25T02:46:28.578Z,62.92
2022-07-25T02:48:55.307Z,62.68
2022-07-25T02:51:21.982Z,62.84
2022-07-25T02:53:58.193Z,62.86
2022-07-25T02:56:26.909Z,62.81
2022-07-25T02:58:56.605Z,62.65
2022-07-25T03:01:23.281Z,62.68
2022-07-25T03:03:50.186Z,62.72
2022-07-25T03:06:17.101Z,62.58
2022-07-25T03:08:43.748Z,62.79
2022-07-25T03:11:11.555Z,62.71
2022-07-25T03:13:38.172Z,62.75
2022-07-25T03:16:05.187Z,62.82
2022-07-25T03:18:31.800Z,62.76
2022-07-25T03:20:58.569Z,62.65
2022-07-25T03:23:27.313Z,62.74
2022-07-25T03:25:54.892Z,62.46
2022-07-25T03:28:21.508Z,62.42
2022-07-25T03:30:48.106Z,62.17
2022-07-25T03:33:14.721Z,62.57
2022-07-25T03:35:41.606Z,62.55
2022-07-25T03:38:08.426Z,62.43
2022-07-25T03:40:36.588Z,62.54
2022-07-25T03:43:03.362Z,62.26
2022-07-25T03:45:30.279Z,62.24
2022-07-25T03:47:56.933Z,62.04
2022-07-25T03:50:23.763Z,62.06
2022-07-25T03:52:50.339Z,62.31
2022-07-25T03:55:16.990Z,62.00
2022-07-25T03:57:43.673Z,62.28
2022-07-25T04:00:12.358Z,62.29
2022-07-25T04:02:39.087Z,62.08
2022-07-25T04:05:07.973Z,62.21
2022-07-25T04:07:35.206Z,62.20
2022-07-25T04:10:02.209Z,62.31
2022-07-25T04:12:28.935Z,62.23
2022-07-25T04:14:55.511Z,62.23
2022-07-25T04:17:22.314Z,62.25
2022-07-25T04:19:51.887Z,62.30
2022-07-25T04:22:18.550Z,62.34
2022-07-25T04:24:45.150Z,62.35
2022-07-25T04:27:11.813Z,62.47
2022-07-25T04:29:38.435Z,62.32
2022-07-25T04:32:05.876Z,62.46
2022-07-25T04:34:32.548Z,62.52
2022-07-25T04:36:59.136Z,62.70
2022-07-25T04:39:26.023Z,62.51
2022-07-25T04:41:52.666Z,62.49
2022-07-25T04:44:19.352Z,62.50
2022-07-25T04:46:45.952Z,62.73
2022-07-25T04:49:12.678Z,62.82
2022-07-25T04:51:39.388Z,62.74
2022-07-25T04:54:06.573Z,63.06
2022-07-25T04:56:33.561Z,62.77
2022-07-25T04:59:06.377Z,62.69
2022-07-25T05:01:33.849Z,62.72
2022-07-25T05:04:00.541Z,62.64
2022-07-25T05:06:27.149Z,62.54
2022-07-25T05:08:53.834Z,62.36
2022-07-25T05:11:20.487Z,62.35
2022-07-25T05:13:47.120Z,62.31
2022-07-25T05:16:13.824Z,62.30
2022-07-25T05:18:40.760Z,62.42
2022-07-25T05:21:10.687Z,62.59
2022-07-25T05:23:37.281Z,62.59
2022-07-25T05:26:03.927Z,62.57
2022-07-25T05:28:30.527Z,62.49
2022-07-25T05:30:57.175Z,62.35
2022-07-25T05:33:23.853Z,62.38
2022-07-25T05:35:50.509Z,62.59
2022-07-25T05:38:17.168Z,62.52
2022-07-25T05:40:43.871Z,62.64
2022-07-25T05:43:10.747Z,62.41
2022-07-25T05:45:37.656Z,62.40
2022-07-25T05:48:04.566Z,62.43
2022-07-25T05:50:31.676Z,62.18
2022-07-25T05:52:58.343Z,62.23
2022-07-25T05:55:24.959Z,62.33
2022-07-25T05:57:51.529Z,62.27
2022-07-25T06:00:18.378Z,62.18
2022-07-25T06:02:45.121Z,62.51
2022-07-25T06:05:11.841Z,62.43
2022-07-25T06:07:38.462Z,62.82
2022-07-25T06:10:05.596Z,62.26
2022-07-25T06:12:33.760Z,62.25
2022-07-25T06:15:04.159Z,62.53
2022-07-25T06:17:32.656Z,62.23
2022-07-25T06:19:59.583Z,62.33
2022-07-25T06:22:26.637Z,62.45
2022-07-25T06:24:53.231Z,62.13
2022-07-25T06:27:21.649Z,62.29
2022-07-25T06:29:49.853Z,62.54
2022-07-25T06:32:16.466Z,62.50
2022-07-25T06:34:43.128Z,62.55
2022-07-25T06:37:09.833Z,62.26
2022-07-25T06:39:36.538Z,62.15
2022-07-25T06:42:04.544Z,62.19
2022-07-25T06:44:35.064Z,62.43
2022-07-25T06:47:02.624Z,62.27
2022-07-25T06:49:29.395Z,62.04
2022-07-25T06:51:55.997Z,62.28
2022-07-25T06:54:22.908Z,62.38
2022-07-25T06:56:49.701Z,61.76
2022-07-25T06:59:16.363Z,61.86
2022-07-25T07:01:43.731Z,61.69
2022-07-25T07:04:12.632Z,61.62
2022-07-25T07:06:40.022Z,61.73
2022-07-25T07:09:07.985Z,61.69
2022-07-25T07:11:34.752Z,61.86
2022-07-25T07:14:03.670Z,61.94
2022-07-25T07:16:31.343Z,61.84
2022-07-25T07:18:58.445Z,61.56
2022-07-25T07:21:25.170Z,61.46
2022-07-25T07:23:53.669Z,61.25
2022-07-25T07:26:20.682Z,61.38
2022-07-25T07:28:47.327Z,61.10
2022-07-25T07:31:17.529Z,60.76
2022-07-25T07:33:44.591Z,60.71
2022-07-25T07:36:11.421Z,60.75
2022-07-25T07:38:38.048Z,60.67
2022-07-25T07:41:04.659Z,60.97
2022-07-25T07:43:32.032Z,61.10
2022-07-25T07:46:01.094Z,60.65
2022-07-25T07:48:32.038Z,60.68
2022-07-25T07:51:00.197Z,60.45
2022-07-25T07:53:47.258Z,60.63
2022-07-25T07:56:15.914Z,60.10
2022-07-25T07:58:43.310Z,60.33
2022-07-25T08:01:09.971Z,60.00
2022-07-25T08:03:37.440Z,59.96
2022-07-25T08:06:04.795Z,59.87
2022-07-25T08:08:31.875Z,60.03
2022-07-25T08:10:59.675Z,59.61
2022-07-25T08:13:30.522Z,59.46
2022-07-25T08:15:59.711Z,59.53
2022-07-25T08:18:29.941Z,59.28
2022-07-25T08:20:57.393Z,59.23
2022-07-25T08:23:25.777Z,58.97
2022-07-25T08:25:52.593Z,59.42
2022-07-25T08:28:19.996Z,59.64
2022-07-25T08:30:46.902Z,59.49
2022-07-25T08:33:16.428Z,58.99
2022-07-25T08:35:54.910Z,58.46
2022-07-25T08:38:23.973Z,58.38
2022-07-25T08:40:51.594Z,58.05
2022-07-25T08:43:19.603Z,58.08
2022-07-25T08:45:53.985Z,57.78
2022-07-25T08:48:23.999Z,57.65
2022-07-25T08:50:51.723Z,57.73
2022-07-25T08:53:36.100Z,57.54
2022-07-25T08:56:14.891Z,57.55
2022-07-25T08:58:44.589Z,57.35
2022-07-25T09:01:12.708Z,57.47
2022-07-25T09:03:40.436Z,57.41
2022-07-25T09:06:21.970Z,57.26
2022-07-25T09:08:59.743Z,57.35
2022-07-25T09:11:34.713Z,57.45
2022-07-25T09:14:11.052Z,57.57
2022-07-25T09:16:45.305Z,57.84
2022-07-25T09:19:16.248Z,57.49
2022-07-25T09:21:45.453Z,57.57
2022-07-25T09:24:16.137Z,57.24
2022-07-25T09:26:44.287Z,57.27
2022-07-25T09:29:21.566Z,57.21
2022-07-25T09:31:48.463Z,56.95
2022-07-25T09:34:39.592Z,56.94
2022-07-25T09:37:12.623Z,57.04
2022-07-25T09:39:48.416Z,57.32
2022-07-25T09:42:28.663Z,57.46
2022-07-25T09:44:59.848Z,57.68
2022-07-25T09:47:27.424Z,57.83
2022-07-25T09:49:54.077Z,57.96
2022-07-25T09:52:20.784Z,58.11
2022-07-25T09:54:47.542Z,58.04
2022-07-25T09:57:14.383Z,57.87
2022-07-25T09:59:41.043Z,57.92
2022-07-25T10:02:11.812Z,58.04
2022-07-25T10:05:03.796Z,57.95
2022-07-25T10:07:31.675Z,58.14
2022-07-25T10:10:00.153Z,58.01
2022-07-25T10:12:26.815Z,57.81
2022-07-25T10:15:13.956Z,57.73
2022-07-25T10:17:42.042Z,57.96
2022-07-25T10:20:10.419Z,57.84
2022-07-25T10:22:55.745Z,57.67
2022-07-25T10:25:23.279Z,57.90
2022-07-25T10:27:58.295Z,57.84
2022-07-25T10:30:27.567Z,57.83
2022-07-25T10:33:10.581Z,57.79
2022-07-25T10:35:38.248Z,57.72
2022-07-25T10:38:06.049Z,57.56
2022-07-25T10:40:38.611Z,57.77
2022-07-25T10:43:21.061Z,57.72
2022-07-25T10:45:57.048Z,57.56
2022-07-25T10:48:23.665Z,57.52
2022-07-25T10:50:59.000Z,57.55
2022-07-25T10:53:34.764Z,57.69
2022-07-25T10:56:28.704Z,57.90
2022-07-25T10:59:00.810Z,58.04
2022-07-25T11:01:32.269Z,57.86
2022-07-25T11:04:03.944Z,57.99
2022-07-25T11:06:41.825Z,57.88
2022-07-25T11:09:22.663Z,57.59
2022-07-25T11:11:54.058Z,57.48
2022-07-25T11:14:33.267Z,57.48
2022-07-25T11:17:15.294Z,57.38
2022-07-25T11:19:53.941Z,57.32
2022-07-25T11:22:20.829Z,56.85
2022-07-25T11:24:47.947Z,56.71
2022-07-25T11:27:28.474Z,56.66
2022-07-25T11:30:21.583Z,56.90
2022-07-25T11:32:58.106Z,56.61
2022-07-25T11:35:33.134Z,56.77
2022-07-25T11:38:02.554Z,56.78
2022-07-25T11:40:30.509Z,57.05
2022-07-25T11:42:59.743Z,57.08
2022-07-25T11:45:29.212Z,57.08
2022-07-25T11:48:11.837Z,56.95
2022-07-25T11:50:44.320Z,57.36
2022-07-25T11:53:14.831Z,57.27
2022-07-25T11:55:43.381Z,57.02
2022-07-25T11:58:13.016Z,57.02
2022-07-25T12:00:42.059Z,57.08
2022-07-25T12:03:19.931Z,57.37
2022-07-25T12:05:48.112Z,57.43
2022-07-25T12:08:20.402Z,57.75
2022-07-25T12:10:48.630Z,58.18
2022-07-25T12:13:28.199Z,58.60
2022-07-25T12:15:57.162Z,59.14
2022-07-25T12:18:24.026Z,59.50
2022-07-25T12:20:50.978Z,59.84
2022-07-25T12:23:18.815Z,60.10
2022-07-25T12:25:46.459Z,60.49
2022-07-25T12:28:14.001Z,60.55
2022-07-25T12:30:42.606Z,60.50
2022-07-25T12:33:10.209Z,60.52
2022-07-25T12:35:39.571Z,60.70
2022-07-25T12:38:06.290Z,60.90
2022-07-25T12:40:33.030Z,60.64
2022-07-25T12:43:00.437Z,60.52
2022-07-25T12:45:28.031Z,60.56
2022-07-25T12:47:54.938Z,60.21
2022-07-25T12:50:22.452Z,60.52
2022-07-25T12:52:49.074Z,60.43
2022-07-25T12:55:18.077Z,60.38
2022-07-25T12:57:45.894Z,60.25
2022-07-25T13:00:15.724Z,60.55
2022-07-25T13:02:43.597Z,60.60
2022-07-25T13:05:10.673Z,60.73
2022-07-25T13:07:37.978Z,60.60
2022-07-25T13:10:05.767Z,60.58
2022-07-25T13:12:32.541Z,60.72
2022-07-25T13:14:59.812Z,60.48
2022-07-25T13:17:27.904Z,60.49
2022-07-25T13:19:56.601Z,60.05
2022-07-25T13:22:24.447Z,60.01
2022-07-25T13:24:51.484Z,59.09
2022-07-25T13:27:19.805Z,58.64
2022-07-25T13:29:47.356Z,58.53
2022-07-25T13:32:14.183Z,58.28
2022-07-25T13:34:40.889Z,57.92
2022-07-25T13:37:07.650Z,58.00
2022-07-25T13:39:42.889Z,58.12
2022-07-25T13:42:09.803Z,57.98
2022-07-25T13:44:36.459Z,58.07
2022-07-25T13:47:03.070Z,58.07
2022-07-25T13:49:31.477Z,58.19
2022-07-25T13:51:58.282Z,58.06
2022-07-25T13:54:24.997Z,57.79
2022-07-25T13:56:51.803Z,58.31
2022-07-25T13:59:21.546Z,58.30
2022-07-25T14:01:49.245Z,58.33
2022-07-25T14:04:16.092Z,58.40
2022-07-25T14:06:43.240Z,58.27
2022-07-25T14:09:10.129Z,58.46
2022-07-25T14:11:37.162Z,58.43
2022-07-25T14:14:04.027Z,58.60
2022-07-25T14:16:30.797Z,58.88
2022-07-25T14:18:57.479Z,59.09
2022-07-25T14:21:24.203Z,59.19
2022-07-25T14:23:52.376Z,59.33
2022-07-25T14:26:19.020Z,59.40
2022-07-25T14:28:45.699Z,59.57
2022-07-25T14:31:15.564Z,59.66
2022-07-25T14:33:42.264Z,59.84
2022-07-25T14:36:11.783Z,59.99
2022-07-25T14:38:38.680Z,59.92
2022-07-25T14:41:12.547Z,59.92
2022-07-25T14:43:40.067Z,59.75
2022-07-25T14:46:08.134Z,59.42
2022-07-25T14:48:37.337Z,59.18
2022-07-25T14:51:04.840Z,59.10
2022-07-25T14:53:32.449Z,59.11
2022-07-25T14:55:59.452Z,58.96
2022-07-25T14:58:26.164Z,58.88
2022-07-25T15:00:52.852Z,59.01
2022-07-25T15:03:19.624Z,58.91
2022-07-25T15:05:46.257Z,58.62
2022-07-25T15:08:14.364Z,58.70
2022-07-25T15:10:41.266Z,58.49
2022-07-25T15:13:30.095Z,58.17
2022-07-25T15:15:54.684Z,58.46
2022-07-25T15:18:21.386Z,57.84
2022-07-25T15:20:48.747Z,57.35
2022-07-25T15:23:15.449Z,57.45
2022-07-25T15:28:29.047Z,57.20
2022-07-25T15:30:55.896Z,56.99
2022-07-25T15:33:22.560Z,57.45
2022-07-25T15:35:49.224Z,57.73
2022-07-25T15:38:16.260Z,57.86
2022-07-25T15:40:43.895Z,57.81
2022-07-25T15:43:10.952Z,58.11
2022-07-25T15:45:39.555Z,58.23
2022-07-25T15:48:11.361Z,58.19
2022-07-25T15:50:43.080Z,58.38
2022-07-25T15:53:10.704Z,58.47
2022-07-25T15:55:39.076Z,58.39
2022-07-25T15:58:06.132Z,58.66
2022-07-25T16:00:34.579Z,58.60
2022-07-25T16:03:01.360Z,58.92
2022-07-25T16:05:28.587Z,59.05
2022-07-25T16:07:55.551Z,59.14
2022-07-25T16:10:22.230Z,59.26
2022-07-25T16:12:48.900Z,59.19
2022-07-25T16:15:16.201Z,59.24
2022-07-25T16:17:42.836Z,59.42
2022-07-25T16:20:10.316Z,59.54
2022-07-25T16:22:38.204Z,59.76
2022-07-25T16:25:05.773Z,59.84
2022-07-25T16:27:32.718Z,59.68
2022-07-25T16:29:59.373Z,59.74
2022-07-25T16:32:25.976Z,59.87
2022-07-25T16:34:52.604Z,59.81
2022-07-25T16:37:20.542Z,60.00
2022-07-25T16:39:47.183Z,59.86
2022-07-25T16:42:13.813Z,59.83
2022-07-25T16:44:40.474Z,59.76
2022-07-25T16:47:07.804Z,59.52
2022-07-25T16:49:34.444Z,59.23
2022-07-25T16:52:01.072Z,59.17
2022-07-25T16:54:27.753Z,59.05
2022-07-25T16:56:58.279Z,59.19
2022-07-25T16:59:26.259Z,59.02
2022-07-25T17:01:53.073Z,58.87
2022-07-25T17:04:19.844Z,58.63
2022-07-25T17:06:47.778Z,58.56
2022-07-25T17:09:14.545Z,58.27
2022-07-25T17:11:41.208Z,58.04
2022-07-25T17:14:08.046Z,57.90
2022-07-25T17:16:34.781Z,57.95
2022-07-25T17:19:02.899Z,57.76
2022-07-25T17:21:29.569Z,57.87
2022-07-25T17:24:02.342Z,57.84
2022-07-25T17:26:29.031Z,57.78
2022-07-25T17:28:59.648Z,57.86
2022-07-25T17:31:27.678Z,57.94
2022-07-25T17:33:54.351Z,57.80
2022-07-25T17:36:21.123Z,58.03
2022-07-25T17:38:55.356Z,57.89
2022-07-25T17:41:21.982Z,58.19
2022-07-25T17:43:48.610Z,58.32
2022-07-25T17:46:16.184Z,58.28
2022-07-25T17:48:43.027Z,58.42
2022-07-25T17:51:09.706Z,58.40
2022-07-25T17:53:36.312Z,58.82
2022-07-25T17:56:03.622Z,58.73
2022-07-25T17:58:31.803Z,58.92
2022-07-25T18:01:01.425Z,59.13
2022-07-25T18:03:28.860Z,59.39
2022-07-25T18:05:55.791Z,59.79
2022-07-25T18:08:22.745Z,59.98
2022-07-25T18:10:50.015Z,60.10
2022-07-25T18:13:18.698Z,60.45
2022-07-25T18:15:45.917Z,60.93
2022-07-25T18:18:16.953Z,61.26
2022-07-25T18:20:47.215Z,61.55
2022-07-25T18:23:14.114Z,61.67
2022-07-25T18:25:40.827Z,62.00
2022-07-25T18:28:07.709Z,62.46
2022-07-25T18:30:36.397Z,62.56
2022-07-25T18:33:09.179Z,62.48
2022-07-25T18:35:38.480Z,63.03
2022-07-25T18:38:15.844Z,63.03
2022-07-25T18:40:42.496Z,63.23
2022-07-25T18:43:09.342Z,63.86
2022-07-25T18:45:38.423Z,64.25
2022-07-25T18:48:06.864Z,64.66
2022-07-25T18:50:34.162Z,64.77
2022-07-25T18:53:01.172Z,65.37
2022-07-25T18:55:28.035Z,65.69
2022-07-25T18:57:55.259Z,65.72
2022-07-25T19:00:25.240Z,65.97
2022-07-25T19:02:54.922Z,66.00
2022-07-25T19:05:24.813Z,66.19
2022-07-25T19:07:52.435Z,66.64
2022-07-25T19:10:20.205Z,66.88
2022-07-25T19:12:46.832Z,67.07
2022-07-25T19:15:14.580Z,67.27
2022-07-25T19:17:41.669Z,67.57
2022-07-25T19:20:09.445Z,67.66
2022-07-25T19:22:37.070Z,67.56
2022-07-25T19:25:08.367Z,67.93
2022-07-25T19:27:36.244Z,67.74
2022-07-25T19:30:07.434Z,67.78
2022-07-25T19:32:35.721Z,67.77
2022-07-25T19:35:04.408Z,68.32
2022-07-25T19:37:31.280Z,68.00
2022-07-25T19:39:58.029Z,68.23
2022-07-25T19:42:24.801Z,68.46
2022-07-25T19:44:52.337Z,68.20
2022-07-25T19:47:19.103Z,68.40
2022-07-25T19:49:45.898Z,68.54
2022-07-25T19:52:12.922Z,68.63
2022-07-25T19:54:39.972Z,68.49
2022-07-25T19:57:09.832Z,68.54
2022-07-25T19:59:36.955Z,68.84
2022-07-25T20:02:04.894Z,68.79
2022-07-25T20:04:31.700Z,68.98
2022-07-25T20:07:01.139Z,68.81
2022-07-25T20:09:29.448Z,69.07
2022-07-25T20:11:56.821Z,69.13
2022-07-25T20:14:23.970Z,68.72
2022-07-25T20:16:51.117Z,68.83
2022-07-25T20:19:18.156Z,68.83
2022-07-25T20:21:45.077Z,68.82
2022-07-25T20:24:13.625Z,68.57
2022-07-25T20:26:42.543Z,68.79
2022-07-25T20:29:09.641Z,68.53
2022-07-25T20:31:37.059Z,68.59
2022-07-25T20:34:03.918Z,68.35
2022-07-25T20:36:30.533Z,68.47
2022-07-25T20:39:01.032Z,68.67
2022-07-25T20:41:27.672Z,68.44
2022-07-25T20:43:55.674Z,68.60
2022-07-25T20:46:22.817Z,68.53
2022-07-25T20:48:49.595Z,68.36
2022-07-25T20:51:16.708Z,68.63
2022-07-25T20:53:43.975Z,68.11
2022-07-25T20:56:18.151Z,68.12
2022-07-25T20:58:44.752Z,68.68
2022-07-25T21:01:11.887Z,68.56
2022-07-25T21:03:38.566Z,68.68
2022-07-25T21:06:05.320Z,68.88
2022-07-25T21:08:31.982Z,69.34
2022-07-25T21:10:58.999Z,69.27
2022-07-25T21:13:25.792Z,69.55
2022-07-25T21:15:57.899Z,69.86
2022-07-25T21:18:24.609Z,70.11
2022-07-25T21:20:51.309Z,69.95
2022-07-25T21:23:17.981Z,70.50
2022-07-25T21:25:44.604Z,70.62
2022-07-25T21:28:11.258Z,70.45
2022-07-25T21:30:41.144Z,70.55
2022-07-25T21:33:13.997Z,70.65
2022-07-25T21:35:49.352Z,70.56
2022-07-25T21:38:26.098Z,70.05
2022-07-25T21:40:55.806Z,70.26
2022-07-25T21:43:22.439Z,70.07
2022-07-25T21:45:49.226Z,69.71
2022-07-25T21:48:15.948Z,69.73
2022-07-25T21:50:49.334Z,69.52
2022-07-25T21:53:17.377Z,69.55
2022-07-25T21:55:44.096Z,69.24
2022-07-25T21:58:10.833Z,69.04
2022-07-25T22:00:43.841Z,69.09
2022-07-25T22:03:12.516Z,68.88
2022-07-25T22:05:39.550Z,68.68
2022-07-25T22:08:06.305Z,68.78
2022-07-25T22:10:33.664Z,68.91
2022-07-25T22:13:00.442Z,68.77
2022-07-25T22:15:27.087Z,68.96
2022-07-25T22:17:54.149Z,68.90
2022-07-25T22:20:21.024Z,68.99
2022-07-25T22:22:48.086Z,69.32
2022-07-25T22:25:15.580Z,68.96
2022-07-25T22:27:42.353Z,69.31
2022-07-25T22:30:12.328Z,69.08
2022-07-25T22:32:43.197Z,69.09
2022-07-25T22:35:09.977Z,69.36
2022-07-25T22:37:36.621Z,69.53
2022-07-25T22:40:03.877Z,69.40
2022-07-25T22:42:30.513Z,69.36
2022-07-25T22:44:57.145Z,69.59
2022-07-25T22:47:23.805Z,69.86
2022-07-25T22:49:50.420Z,69.89
2022-07-25T22:52:17.087Z,70.00
2022-07-25T22:54:43.844Z,70.07
2022-07-25T22:57:10.528Z,70.09
2022-07-25T22:59:37.332Z,70.26
2022-07-25T23:02:03.940Z,70.07
2022-07-25T23:04:30.646Z,70.49
2022-07-25T23:06:57.260Z,70.33
2022-07-25T23:09:24.108Z,70.57
2022-07-25T23:11:50.942Z,70.37
2022-07-25T23:14:17.682Z,70.24
2022-07-25T23:16:44.346Z,70.52
2022-07-25T23:19:11.152Z,70.54
2022-07-25T23:21:37.915Z,70.92
2022-07-25T23:24:06.014Z,70.87
2022-07-25T23:26:32.655Z,70.91
2022-07-25T23:28:59.251Z,71.58
2022-07-25T23:31:25.875Z,71.21
2022-07-25T23:33:52.536Z,71.28
2022-07-25T23:36:19.184Z,71.40
2022-07-25T23:38:45.825Z,71.69
2022-07-25T23:41:12.453Z,71.64
2022-07-25T23:43:56.915Z,71.74
2022-07-25T23:46:29.326Z,72.09
2022-07-25T23:48:58.619Z,72.20
2022-07-25T23:51:25.879Z,72.35
2022-07-25T23:53:52.491Z,72.53
2022-07-25T23:56:21.188Z,72.71
2022-07-25T23:58:50.153Z,72.65
